createdAt,value
2018-11-02T00:01:26.604Z,6.70
2018-11-02T00:03:54.017Z,6.70
2018-11-02T00:06:21.592Z,6.80
2018-11-02T00:08:48.796Z,6.80
2018-11-02T00:11:16.531Z,6.80
2018-11-02T00:13:43.853Z,6.80
2018-11-02T00:16:11.160Z,6.70
2018-11-02T00:18:38.497Z,6.70
2018-11-02T00:21:05.829Z,6.70
2018-11-02T00:23:33.150Z,6.80
2018-11-02T00:26:00.468Z,6.80
2018-11-02T00:28:27.806Z,6.70
2018-11-02T00:30:55.128Z,6.70
2018-11-02T00:33:22.467Z,6.70
2018-11-02T00:35:49.801Z,6.80
2018-11-02T00:38:17.124Z,6.80
2018-11-02T00:40:44.445Z,6.80
2018-11-02T00:43:11.752Z,6.80
2018-11-02T00:45:39.077Z,6.80
2018-11-02T00:48:06.412Z,6.80
2018-11-02T00:50:33.726Z,6.80
2018-11-02T00:53:01.109Z,6.90
2018-11-02T00:55:28.429Z,6.90
2018-11-02T00:57:55.764Z,6.80
2018-11-02T01:00:23.082Z,6.80
2018-11-02T01:02:50.397Z,6.80
2018-11-02T01:05:17.768Z,6.70
2018-11-02T01:07:45.050Z,6.60
2018-11-02T01:10:12.405Z,6.70
2018-11-02T01:12:39.716Z,6.70
2018-11-02T01:15:08.444Z,6.70
2018-11-02T01:17:35.894Z,6.70
2018-11-02T01:20:04.113Z,6.70
2018-11-02T01:22:31.442Z,6.70
2018-11-02T01:24:58.753Z,6.70
2018-11-02T01:27:26.090Z,6.60
2018-11-02T01:29:53.405Z,6.60
2018-11-02T01:32:20.725Z,6.60
2018-11-02T01:34:48.055Z,6.60
2018-11-02T01:37:15.376Z,6.60
2018-11-02T01:39:42.694Z,6.60
2018-11-02T01:42:10.024Z,6.60
2018-11-02T01:44:37.653Z,6.60
2018-11-02T01:47:05.288Z,6.60
2018-11-02T01:49:32.657Z,6.60
2018-11-02T01:52:00.005Z,6.60
2018-11-02T01:54:27.337Z,6.60
2018-11-02T01:56:54.645Z,6.60
2018-11-02T01:59:21.960Z,6.60
2018-11-02T02:01:49.257Z,6.70
2018-11-02T02:04:16.636Z,6.60
2018-11-02T02:06:44.001Z,6.60
2018-11-02T02:09:11.781Z,6.60
2018-11-02T02:11:39.139Z,6.70
2018-11-02T02:14:06.704Z,6.70
2018-11-02T02:16:34.041Z,6.70
2018-11-02T02:19:01.376Z,6.60
2018-11-02T02:21:28.700Z,6.70
2018-11-02T02:23:56.009Z,6.70
2018-11-02T02:26:23.328Z,6.70
2018-11-02T02:28:50.628Z,6.70
2018-11-02T02:31:17.973Z,6.60
2018-11-02T02:33:45.286Z,6.60
2018-11-02T02:36:12.624Z,6.60
2018-11-02T02:38:39.932Z,6.60
2018-11-02T02:41:07.257Z,6.70
2018-11-02T02:43:34.573Z,6.60
2018-11-02T02:46:01.892Z,6.50
2018-11-02T02:48:29.188Z,6.40
2018-11-02T02:50:56.529Z,6.50
2018-11-02T02:53:23.830Z,6.50
2018-11-02T02:55:51.199Z,6.50
2018-11-02T02:58:18.480Z,6.60
2018-11-02T03:00:45.785Z,6.70
2018-11-02T03:03:13.139Z,6.70
2018-11-02T03:05:40.445Z,6.80
2018-11-02T03:08:07.771Z,6.80
2018-11-02T03:10:35.183Z,6.70
2018-11-02T03:13:03.458Z,6.70
2018-11-02T03:15:30.769Z,6.70
2018-11-02T03:17:58.104Z,6.70
2018-11-02T03:20:25.418Z,6.80
2018-11-02T03:22:52.754Z,6.80
2018-11-02T03:25:20.068Z,6.80
2018-11-02T03:27:47.408Z,6.80
2018-11-02T03:30:14.973Z,6.80
2018-11-02T03:32:42.311Z,6.80
2018-11-02T03:35:09.813Z,6.70
2018-11-02T03:37:37.140Z,6.60
2018-11-02T03:40:05.022Z,6.70
2018-11-02T03:42:32.346Z,6.70
2018-11-02T03:44:59.630Z,6.70
2018-11-02T03:47:26.977Z,6.70
2018-11-02T03:49:54.296Z,6.80
2018-11-02T03:52:30.417Z,6.80
2018-11-02T03:54:58.186Z,6.80
2018-11-02T03:57:25.530Z,6.90
2018-11-02T03:59:52.837Z,6.90
2018-11-02T04:02:20.148Z,6.90
2018-11-02T04:04:47.506Z,6.90
2018-11-02T04:07:14.821Z,6.80
2018-11-02T04:09:43.223Z,6.70
2018-11-02T04:12:10.485Z,6.70
2018-11-02T04:14:37.817Z,6.80
2018-11-02T04:17:05.613Z,6.70
2018-11-02T04:19:32.940Z,6.80
2018-11-02T04:22:00.259Z,6.80
2018-11-02T04:24:27.617Z,6.80
2018-11-02T04:26:54.940Z,6.80
2018-11-02T04:29:22.273Z,6.80
2018-11-02T04:31:50.635Z,6.90
2018-11-02T04:34:17.971Z,6.90
2018-11-02T04:36:45.288Z,6.90
2018-11-02T04:39:13.717Z,6.90
2018-11-02T04:41:41.025Z,6.90
2018-11-02T04:44:09.380Z,7.00
2018-11-02T04:46:37.260Z,7.00
2018-11-02T04:49:05.317Z,7.00
2018-11-02T04:51:32.672Z,7.00
2018-11-02T04:54:00.018Z,7.00
2018-11-02T04:56:27.359Z,7.00
2018-11-02T04:58:54.685Z,6.90
2018-11-02T05:01:22.283Z,7.00
2018-11-02T05:03:49.759Z,7.00
2018-11-02T05:06:17.095Z,7.00
2018-11-02T05:08:44.796Z,7.00
2018-11-02T05:11:12.555Z,7.00
2018-11-02T05:13:40.144Z,7.00
2018-11-02T05:16:07.664Z,7.10
2018-11-02T05:18:35.233Z,7.10
2018-11-02T05:21:02.635Z,7.10
2018-11-02T05:23:29.956Z,7.10
2018-11-02T05:25:57.419Z,7.10
2018-11-02T05:28:24.764Z,7.10
2018-11-02T05:30:52.090Z,7.10
2018-11-02T05:33:19.384Z,7.10
2018-11-02T05:35:46.715Z,7.10
2018-11-02T05:38:14.048Z,7.10
2018-11-02T05:40:41.379Z,7.10
2018-11-02T05:43:08.678Z,7.10
2018-11-02T05:45:36.012Z,7.00
2018-11-02T05:48:03.374Z,7.00
2018-11-02T05:50:30.737Z,7.10
2018-11-02T05:52:58.113Z,7.10
2018-11-02T05:55:25.469Z,7.10
2018-11-02T05:57:52.851Z,7.00
2018-11-02T06:00:20.864Z,7.00
2018-11-02T06:02:48.190Z,7.10
2018-11-02T06:05:15.515Z,7.10
2018-11-02T06:07:42.940Z,7.10
2018-11-02T06:10:10.224Z,7.20
2018-11-02T06:12:37.580Z,7.20
2018-11-02T06:15:04.972Z,7.20
2018-11-02T06:17:32.325Z,7.20
2018-11-02T06:19:59.733Z,7.20
2018-11-02T06:22:26.967Z,7.20
2018-11-02T06:24:54.297Z,7.20
2018-11-02T06:27:21.620Z,7.20
2018-11-02T06:29:48.940Z,7.20
2018-11-02T06:32:16.269Z,7.20
2018-11-02T06:34:43.600Z,7.30
2018-11-02T06:37:10.909Z,7.10
2018-11-02T06:39:38.220Z,6.90
2018-11-02T06:42:05.548Z,6.90
2018-11-02T06:44:33.698Z,6.70
2018-11-02T06:47:01.028Z,6.80
2018-11-02T06:49:28.353Z,6.90
2018-11-02T06:51:55.680Z,6.90
2018-11-02T06:54:23.025Z,6.90
2018-11-02T06:56:50.361Z,6.90
2018-11-02T06:59:17.830Z,6.90
2018-11-02T07:01:45.042Z,7.00
2018-11-02T07:04:12.860Z,7.00
2018-11-02T07:06:40.260Z,7.10
2018-11-02T07:09:09.155Z,7.10
2018-11-02T07:11:36.497Z,7.20
2018-11-02T07:14:03.865Z,7.10
2018-11-02T07:16:31.184Z,7.20
2018-11-02T07:18:58.454Z,7.20
2018-11-02T07:21:25.807Z,7.20
2018-11-02T07:23:53.123Z,7.20
2018-11-02T07:26:20.427Z,7.10
2018-11-02T07:28:47.766Z,7.10
2018-11-02T07:31:15.172Z,7.20
2018-11-02T07:33:42.515Z,7.20
2018-11-02T07:36:09.852Z,7.30
2018-11-02T07:38:37.213Z,7.40
2018-11-02T07:41:04.859Z,7.50
2018-11-02T07:43:32.147Z,7.60
2018-11-02T07:45:59.525Z,7.70
2018-11-02T07:48:26.854Z,7.90
2018-11-02T07:50:54.176Z,8.00
2018-11-02T07:53:21.537Z,8.10
2018-11-02T07:55:48.881Z,8.10
2018-11-02T07:58:16.246Z,8.20
2018-11-02T08:00:43.576Z,8.40
2018-11-02T08:03:10.936Z,8.50
2018-11-02T08:05:38.296Z,8.60
2018-11-02T08:08:05.632Z,8.70
2018-11-02T08:10:32.945Z,8.80
2018-11-02T08:13:00.292Z,9.00
2018-11-02T08:15:27.629Z,9.20
2018-11-02T08:17:54.987Z,9.40
2018-11-02T08:20:22.333Z,9.50
2018-11-02T08:22:49.696Z,9.50
2018-11-02T08:25:17.020Z,9.60
2018-11-02T08:27:44.409Z,9.60
2018-11-02T08:30:11.899Z,9.70
2018-11-02T08:32:39.287Z,9.90
2018-11-02T08:35:08.553Z,10.10
2018-11-02T08:37:35.896Z,10.40
2018-11-02T08:40:03.389Z,10.50
2018-11-02T08:42:31.013Z,10.70
2018-11-02T08:44:58.361Z,10.90
2018-11-02T08:47:25.725Z,11.10
2018-11-02T08:49:53.100Z,11.30
2018-11-02T08:52:20.538Z,11.50
2018-11-02T08:54:47.764Z,11.80
2018-11-02T08:57:15.121Z,11.90
2018-11-02T08:59:42.554Z,12.00
2018-11-02T09:02:09.793Z,12.20
2018-11-02T09:04:38.049Z,12.30
2018-11-02T09:07:05.543Z,12.40
2018-11-02T09:09:32.843Z,12.60
2018-11-02T09:12:00.209Z,12.70
2018-11-02T09:14:27.532Z,12.70
2018-11-02T09:16:54.909Z,12.70
2018-11-02T09:19:22.289Z,12.70
2018-11-02T09:21:49.676Z,12.80
2018-11-02T09:24:17.068Z,12.80
2018-11-02T09:26:44.409Z,12.90
2018-11-02T09:29:11.753Z,12.90
2018-11-02T09:31:39.206Z,13.00
2018-11-02T09:34:06.529Z,13.10
2018-11-02T09:36:33.901Z,13.20
2018-11-02T09:39:01.264Z,13.20
2018-11-02T09:41:28.617Z,13.30
2018-11-02T09:43:55.971Z,13.30
2018-11-02T09:46:23.330Z,13.40
2018-11-02T09:48:50.685Z,13.30
2018-11-02T09:51:19.114Z,13.20
2018-11-02T09:53:46.439Z,13.20
2018-11-02T09:56:13.809Z,13.40
2018-11-02T09:58:41.151Z,13.40
2018-11-02T10:01:08.538Z,13.50
2018-11-02T10:03:36.612Z,13.50
2018-11-02T10:06:04.185Z,13.50
2018-11-02T10:08:31.613Z,13.60
2018-11-02T10:10:58.998Z,13.80
2018-11-02T10:13:26.704Z,13.90
2018-11-02T10:15:54.096Z,14.10
2018-11-02T10:18:21.448Z,14.20
2018-11-02T10:20:48.786Z,14.10
2018-11-02T10:23:16.153Z,13.80
2018-11-02T10:25:43.563Z,13.80
2018-11-02T10:28:11.025Z,13.80
2018-11-02T10:30:38.406Z,13.70
2018-11-02T10:33:05.793Z,13.80
2018-11-02T10:35:33.314Z,13.70
2018-11-02T10:38:01.324Z,13.90
2018-11-02T10:40:30.649Z,13.90
2018-11-02T10:42:59.528Z,14.00
2018-11-02T10:45:31.140Z,14.00
2018-11-02T10:47:58.565Z,14.10
2018-11-02T10:50:26.249Z,14.10
2018-11-02T10:52:53.845Z,14.00
2018-11-02T10:55:21.235Z,14.10
2018-11-02T10:57:48.596Z,13.90
2018-11-02T11:00:21.801Z,13.70
2018-11-02T11:02:49.184Z,13.50
2018-11-02T11:05:17.608Z,13.40
2018-11-02T11:07:44.932Z,13.40
2018-11-02T11:10:12.302Z,13.30
2018-11-02T11:12:40.086Z,13.20
2018-11-02T11:15:07.136Z,13.30
2018-11-02T11:17:34.553Z,13.30
2018-11-02T11:20:01.921Z,13.30
2018-11-02T11:22:29.264Z,13.30
2018-11-02T11:24:56.936Z,13.30
2018-11-02T11:27:24.312Z,13.30
2018-11-02T11:29:51.656Z,13.20
2018-11-02T11:32:19.029Z,13.20
2018-11-02T11:34:46.401Z,13.10
2018-11-02T11:37:13.801Z,13.00
2018-11-02T11:39:41.183Z,13.00
2018-11-02T11:42:08.510Z,13.00
2018-11-02T11:44:35.865Z,13.00
2018-11-02T11:47:03.248Z,13.00
2018-11-02T11:49:30.645Z,13.10
2018-11-02T11:51:58.348Z,13.10
2018-11-02T11:54:26.273Z,13.10
2018-11-02T11:56:53.601Z,13.00
2018-11-02T11:59:21.024Z,13.00
2018-11-02T12:01:48.394Z,12.80
2018-11-02T12:04:15.808Z,12.80
2018-11-02T12:06:43.129Z,12.80
2018-11-02T12:09:10.539Z,12.80
2018-11-02T12:11:37.930Z,13.00
2018-11-02T12:14:05.343Z,13.10
2018-11-02T12:16:32.709Z,13.10
2018-11-02T12:19:00.071Z,13.10
2018-11-02T12:21:27.429Z,13.20
2018-11-02T12:23:54.776Z,13.10
2018-11-02T12:26:23.144Z,13.00
2018-11-02T12:28:50.548Z,13.00
2018-11-02T12:31:17.854Z,13.10
2018-11-02T12:33:45.169Z,13.10
2018-11-02T12:36:12.691Z,13.10
2018-11-02T12:38:40.009Z,13.00
2018-11-02T12:41:07.381Z,13.20
2018-11-02T12:43:34.799Z,13.10
2018-11-02T12:46:02.121Z,13.10
2018-11-02T12:48:30.109Z,13.20
2018-11-02T12:50:57.379Z,13.10
2018-11-02T12:53:24.697Z,13.20
2018-11-02T12:55:52.025Z,13.20
2018-11-02T12:58:20.332Z,13.20
2018-11-02T13:00:47.677Z,13.20
2018-11-02T13:03:15.028Z,13.30
2018-11-02T13:05:42.370Z,13.10
2018-11-02T13:08:09.700Z,13.00
2018-11-02T13:10:37.048Z,13.00
2018-11-02T13:13:04.560Z,12.80
2018-11-02T13:15:32.197Z,12.90
2018-11-02T13:17:59.555Z,13.00
2018-11-02T13:20:26.859Z,12.90
2018-11-02T13:22:54.205Z,12.90
2018-11-02T13:25:21.869Z,12.80
2018-11-02T13:27:49.948Z,13.00
2018-11-02T13:30:17.414Z,13.10
2018-11-02T13:32:44.626Z,13.00
2018-11-02T13:35:13.902Z,12.90
2018-11-02T13:37:41.832Z,13.00
2018-11-02T13:40:10.505Z,13.10
2018-11-02T13:42:38.580Z,13.20
2018-11-02T13:45:06.859Z,13.20
2018-11-02T13:47:34.210Z,13.00
2018-11-02T13:50:01.538Z,13.10
2018-11-02T13:52:28.864Z,13.20
2018-11-02T13:54:56.216Z,13.30
2018-11-02T13:57:23.541Z,13.10
2018-11-02T13:59:50.942Z,13.20
2018-11-02T14:02:18.215Z,13.30
2018-11-02T14:04:45.541Z,13.20
2018-11-02T14:07:12.897Z,13.10
2018-11-02T14:09:40.516Z,13.00
2018-11-02T14:12:08.897Z,12.90
2018-11-02T14:14:36.204Z,12.80
2018-11-02T14:17:03.524Z,12.70
2018-11-02T14:19:30.843Z,12.40
2018-11-02T14:21:58.171Z,12.20
2018-11-02T14:24:25.463Z,12.00
2018-11-02T14:26:53.350Z,12.00
2018-11-02T14:29:20.657Z,11.90
2018-11-02T14:31:47.903Z,11.90
2018-11-02T14:34:15.260Z,11.90
2018-11-02T14:36:42.602Z,11.80
2018-11-02T14:39:11.960Z,11.80
2018-11-02T14:41:39.814Z,11.80
2018-11-02T14:44:07.777Z,11.90
2018-11-02T14:46:35.432Z,11.90
2018-11-02T14:49:02.686Z,11.90
2018-11-02T14:51:30.069Z,11.90
2018-11-02T14:53:57.428Z,11.90
2018-11-02T14:56:24.775Z,11.90
2018-11-02T14:58:52.100Z,11.90
2018-11-02T15:01:19.465Z,11.70
2018-11-02T15:03:48.568Z,11.80
2018-11-02T15:06:15.893Z,11.70
2018-11-02T15:08:43.228Z,11.70
2018-11-02T15:11:10.594Z,11.70
2018-11-02T15:13:37.910Z,11.60
2018-11-02T15:16:05.289Z,11.60
2018-11-02T15:18:32.676Z,11.60
2018-11-02T15:21:00.022Z,11.60
2018-11-02T15:23:27.360Z,11.50
2018-11-02T15:25:54.733Z,11.40
2018-11-02T15:28:22.074Z,11.40
2018-11-02T15:30:49.437Z,11.30
2018-11-02T15:33:16.836Z,11.30
2018-11-02T15:35:44.194Z,11.20
2018-11-02T15:38:11.539Z,11.00
2018-11-02T15:40:38.896Z,10.90
2018-11-02T15:43:06.257Z,10.90
2018-11-02T15:45:33.608Z,10.80
2018-11-02T15:48:00.973Z,10.80
2018-11-02T15:50:28.312Z,10.80
2018-11-02T15:52:56.354Z,10.80
2018-11-02T15:55:23.724Z,10.90
2018-11-02T15:57:51.084Z,10.90
2018-11-02T16:00:19.465Z,10.90
2018-11-02T16:02:48.274Z,10.90
2018-11-02T16:05:15.647Z,10.90
2018-11-02T16:07:43.001Z,10.80
2018-11-02T16:10:11.244Z,10.80
2018-11-02T16:12:38.805Z,10.70
2018-11-02T16:15:07.100Z,10.60
2018-11-02T16:17:34.472Z,10.50
2018-11-02T16:20:01.910Z,10.50
2018-11-02T16:22:29.535Z,10.50
2018-11-02T16:24:56.912Z,10.50
2018-11-02T16:27:24.368Z,10.50
2018-11-02T16:29:51.732Z,10.50
2018-11-02T16:32:19.184Z,10.50
2018-11-02T16:34:46.559Z,10.50
2018-11-02T16:37:13.987Z,10.50
2018-11-02T16:39:41.321Z,10.50
2018-11-02T16:42:09.052Z,10.50
2018-11-02T16:44:36.386Z,10.40
2018-11-02T16:47:03.734Z,10.30
2018-11-02T16:49:31.140Z,10.20
2018-11-02T16:51:58.472Z,10.20
2018-11-02T16:54:25.873Z,10.30
2018-11-02T16:56:53.214Z,10.30
2018-11-02T16:59:20.561Z,10.30
2018-11-02T17:01:47.919Z,10.20
2018-11-02T17:04:15.970Z,10.10
2018-11-02T17:06:43.329Z,10.00
2018-11-02T17:09:12.172Z,10.00
2018-11-02T17:11:39.592Z,10.10
2018-11-02T17:14:07.140Z,10.10
2018-11-02T17:16:34.480Z,10.00
2018-11-02T17:19:01.837Z,10.10
2018-11-02T17:21:29.193Z,10.10
2018-11-02T17:23:56.569Z,10.10
2018-11-02T17:26:23.926Z,10.20
2018-11-02T17:28:51.285Z,10.20
2018-11-02T17:31:18.622Z,10.20
2018-11-02T17:33:45.981Z,10.10
2018-11-02T17:36:13.467Z,10.20
2018-11-02T17:38:40.844Z,10.30
2018-11-02T17:41:08.687Z,10.20
2018-11-02T17:43:36.038Z,10.20
2018-11-02T17:46:03.429Z,10.20
2018-11-02T17:48:30.756Z,10.30
2018-11-02T17:50:58.097Z,10.20
2018-11-02T17:53:25.499Z,10.20
2018-11-02T17:55:52.747Z,10.20
2018-11-02T17:58:20.088Z,10.20
2018-11-02T18:00:47.424Z,10.20
2018-11-02T18:03:14.778Z,10.20
2018-11-02T18:05:42.153Z,10.20
2018-11-02T18:08:09.559Z,10.10
2018-11-02T18:10:36.815Z,10.10
2018-11-02T18:13:05.151Z,10.10
2018-11-02T18:15:32.513Z,10.20
2018-11-02T18:17:59.861Z,10.20
2018-11-02T18:20:27.224Z,10.20
2018-11-02T18:22:54.538Z,10.20
2018-11-02T18:25:21.881Z,10.20
2018-11-02T18:27:49.224Z,10.10
2018-11-02T18:30:16.585Z,10.10
2018-11-02T18:32:44.117Z,10.10
2018-11-02T18:35:11.486Z,10.10
2018-11-02T18:37:39.486Z,9.90
2018-11-02T18:40:08.409Z,9.80
2018-11-02T18:42:35.954Z,9.70
2018-11-02T18:45:04.056Z,9.60
2018-11-02T18:47:37.178Z,9.50
2018-11-02T18:50:04.890Z,9.60
2018-11-02T18:52:32.225Z,9.60
2018-11-02T18:54:59.567Z,9.70
2018-11-02T18:57:27.258Z,9.70
2018-11-02T18:59:54.596Z,9.80
2018-11-02T19:02:21.933Z,9.70
2018-11-02T19:04:49.312Z,9.70
2018-11-02T19:07:16.689Z,9.70
2018-11-02T19:09:44.021Z,9.70
2018-11-02T19:12:11.388Z,9.60
2018-11-02T19:14:38.732Z,9.60
2018-11-02T19:17:06.114Z,9.60
2018-11-02T19:19:33.496Z,9.50
2018-11-02T19:22:00.779Z,9.50
2018-11-02T19:24:28.108Z,9.50
2018-11-02T19:26:55.536Z,9.40
2018-11-02T19:29:22.874Z,9.40
2018-11-02T19:31:50.265Z,9.20
2018-11-02T19:34:17.818Z,9.30
2018-11-02T19:36:45.098Z,9.30
2018-11-02T19:39:12.461Z,9.30
2018-11-02T19:41:39.815Z,9.30
2018-11-02T19:44:07.259Z,9.20
2018-11-02T19:46:34.585Z,9.10
2018-11-02T19:49:02.136Z,9.00
2018-11-02T19:51:29.468Z,9.00
2018-11-02T19:53:56.889Z,8.90
2018-11-02T19:56:24.253Z,8.90
2018-11-02T19:58:51.752Z,8.80
2018-11-02T20:01:19.109Z,8.80
2018-11-02T20:03:46.506Z,8.70
2018-11-02T20:06:13.941Z,8.70
2018-11-02T20:08:41.320Z,8.60
2018-11-02T20:11:08.640Z,8.60
2018-11-02T20:13:36.027Z,8.60
2018-11-02T20:16:03.400Z,8.60
2018-11-02T20:18:30.784Z,8.60
2018-11-02T20:20:58.136Z,8.60
2018-11-02T20:23:25.501Z,8.70
2018-11-02T20:25:52.891Z,8.70
2018-11-02T20:28:20.201Z,8.70
2018-11-02T20:30:47.535Z,8.70
2018-11-02T20:33:14.850Z,8.70
2018-11-02T20:35:42.111Z,8.80
2018-11-02T20:38:09.399Z,8.80
2018-11-02T20:40:36.782Z,8.90
2018-11-02T20:43:04.284Z,9.00
2018-11-02T20:45:31.603Z,9.00
2018-11-02T20:47:59.145Z,9.00
2018-11-02T20:50:26.480Z,9.00
2018-11-02T20:52:53.924Z,9.00
2018-11-02T20:55:21.413Z,9.00
2018-11-02T20:57:48.830Z,9.00
2018-11-02T21:00:17.717Z,9.00
2018-11-02T21:02:45.171Z,9.00
2018-11-02T21:05:13.666Z,9.00
2018-11-02T21:07:41.440Z,8.90
2018-11-02T21:10:11.092Z,8.90
2018-11-02T21:12:38.533Z,8.70
2018-11-02T21:15:08.497Z,8.70
2018-11-02T21:17:35.868Z,8.70
2018-11-02T21:20:04.840Z,8.80
2018-11-02T21:22:32.231Z,8.90
2018-11-02T21:24:59.636Z,9.00
2018-11-02T21:27:26.992Z,9.10
2018-11-02T21:29:54.466Z,9.00
2018-11-02T21:32:21.852Z,8.90
2018-11-02T21:34:51.345Z,8.80
2018-11-02T21:37:18.693Z,8.80
2018-11-02T21:39:46.044Z,8.90
2018-11-02T21:42:13.541Z,9.00
2018-11-02T21:44:40.996Z,9.10
2018-11-02T21:47:08.452Z,9.20
2018-11-02T21:49:35.851Z,9.30
2018-11-02T21:52:03.273Z,9.40
2018-11-02T21:54:30.638Z,9.30
2018-11-02T21:56:58.038Z,9.30
2018-11-02T21:59:25.422Z,9.40
2018-11-02T22:01:52.817Z,9.30
2018-11-02T22:04:20.258Z,9.40
2018-11-02T22:06:47.613Z,9.20
2018-11-02T22:09:15.072Z,9.10
2018-11-02T22:11:42.428Z,9.00
2018-11-02T22:14:10.787Z,8.90
2018-11-02T22:16:38.266Z,9.00
2018-11-02T22:19:05.647Z,8.90
2018-11-02T22:21:32.984Z,9.10
2018-11-02T22:24:00.339Z,9.10
2018-11-02T22:26:27.694Z,9.30
2018-11-02T22:28:55.098Z,9.30
2018-11-02T22:31:22.398Z,9.30
2018-11-02T22:33:49.721Z,9.30
2018-11-02T22:36:17.062Z,9.40
2018-11-02T22:38:44.384Z,9.30
2018-11-02T22:41:12.085Z,9.10
2018-11-02T22:43:39.425Z,9.20
2018-11-02T22:46:07.074Z,9.30
2018-11-02T22:48:34.425Z,9.40
2018-11-02T22:51:01.764Z,9.50
2018-11-02T22:53:29.085Z,9.50
2018-11-02T22:55:56.429Z,9.60
2018-11-02T22:58:23.775Z,9.50
2018-11-02T23:00:56.820Z,9.40
2018-11-02T23:03:24.169Z,9.40
2018-11-02T23:05:51.517Z,9.50
2018-11-02T23:08:18.855Z,9.60
2018-11-02T23:10:46.202Z,9.60
2018-11-02T23:13:13.536Z,9.70
2018-11-02T23:15:40.892Z,9.70
2018-11-02T23:18:08.242Z,9.80
2018-11-02T23:20:35.572Z,9.80
2018-11-02T23:23:02.908Z,9.80
2018-11-02T23:25:30.249Z,9.80
2018-11-02T23:27:57.590Z,9.80
2018-11-02T23:30:24.940Z,9.80
2018-11-02T23:32:52.256Z,9.80
2018-11-02T23:35:19.641Z,9.80
2018-11-02T23:37:46.924Z,9.80
2018-11-02T23:40:14.263Z,9.80
2018-11-02T23:42:41.609Z,9.70
2018-11-02T23:45:10.043Z,9.70
2018-11-02T23:47:37.508Z,9.60
2018-11-02T23:50:06.913Z,9.60
2018-11-02T23:52:34.238Z,9.70
2018-11-02T23:55:01.582Z,9.60
2018-11-02T23:57:28.952Z,9.60
2018-11-02T23:59:56.282Z,9.70
